Taranto — V2AK2 — position and weather

sailwx.info

Track history (hours):
 
Tides and Currents Weather Stations Pressure Air Temp Water Temp Dewpoint Dewpoint Depression Visibility Wind Speed Wind Dir Waves Ship Positions

Taranto

Last reported at 2015-Mar-27 08:33 UTC. Time now 2015-Mar-28 09:22 UTC.
Position N 58°53' E 009°46'.

Length 88 m; draft 3.2 m.

Type: Cargo ship. MMSI: 304010614.

Date/timePositionNaut miles runAvg speedWind from/ knotsBaromVisibWave heightAir tempDewpointWater temp
2015-Mar-27 08:33N 58°53' E 009°46'13 0.8
2015-Mar-26 15:05N 59°06' E 009°38'8 9.1
2015-Mar-26 14:12N 58°60' E 009°47'6 9.8
2015-Mar-26 13:33N 58°53' E 009°47'335 7.9
2015-Mar-24 19:05N 53°35' E 006°38'712.5
2015-Mar-24 18:33N 53°31' E 006°47'1312.9
2015-Mar-24 17:34N 53°21' E 006°59'3 2.5
2015-Mar-24 16:34N 53°19' E 006°56'1 1.1
2015-Mar-24 15:33N 53°19' E 006°55'0 0.0
2015-Mar-24 14:33N 53°19' E 006°55'0 0.0
2015-Mar-24 13:33N 53°19' E 006°55'0 0.0
2015-Mar-24 12:33N 53°19' E 006°55'0 0.0
2015-Mar-24 11:27N 53°19' E 006°55'0 0.0
2015-Mar-24 10:33N 53°19' E 006°55'0 0.0
2015-Mar-24 09:33N 53°19' E 006°55'0 0.0
2015-Mar-24 08:33N 53°19' E 006°55'0 0.0
2015-Mar-24 07:30N 53°19' E 006°55'0 0.0
2015-Mar-24 06:30N 53°19' E 006°55'0 0.0
2015-Mar-24 05:30N 53°19' E 006°55'0 0.0
2015-Mar-24 04:30N 53°19' E 006°55'0 0.0
2015-Mar-24 03:27N 53°19' E 006°55'0 0.0
2015-Mar-24 02:30N 53°19' E 006°55'0 0.0
2015-Mar-24 01:30N 53°19' E 006°55'0 0.0
2015-Mar-24 00:27N 53°19' E 006°55'0 0.0
2015-Mar-23 23:30N 53°19' E 006°55'0 0.0
2015-Mar-23 22:30N 53°19' E 006°55'0 0.0
2015-Mar-23 21:27N 53°19' E 006°55'0 0.0
2015-Mar-23 20:33N 53°19' E 006°55'0 0.0
2015-Mar-23 19:33N 53°19' E 006°55'0 0.0
2015-Mar-23 18:33N 53°19' E 006°55'0 0.0
2015-Mar-23 17:33N 53°19' E 006°55'0 0.0
2015-Mar-23 16:33N 53°19' E 006°55'0 0.0
2015-Mar-23 15:33N 53°19' E 006°55'0 0.0
2015-Mar-23 14:33N 53°19' E 006°55'0 0.0
2015-Mar-23 13:33N 53°19' E 006°55'0 0.0
2015-Mar-23 12:33N 53°19' E 006°55'0 0.0
2015-Mar-23 11:33N 53°19' E 006°55'0 0.0
2015-Mar-23 10:33N 53°19' E 006°55'0 0.0
2015-Mar-23 09:33N 53°19' E 006°55'0 0.0
2015-Mar-23 08:33N 53°19' E 006°55'0 0.0
2015-Mar-23 07:33N 53°19' E 006°55'0 0.0
2015-Mar-23 06:33N 53°19' E 006°55'0 0.0
2015-Mar-23 05:21N 53°19' E 006°55'0 0.0
2015-Mar-23 04:33N 53°19' E 006°55'0 0.0
2015-Mar-23 03:21N 53°19' E 006°55'0 0.0
2015-Mar-23 02:33N 53°19' E 006°55'1 0.7
2015-Mar-23 01:33N 53°19' E 006°56'2 2.2
2015-Mar-23 00:33N 53°19' E 006°59'9 9.3
2015-Mar-22 23:33N 53°27' E 006°52'4310.8
2015-Mar-22 19:33N 53°36' E 005°41'1111.5
2015-Mar-22 18:33N 53°32' E 005°23'1111.2
2015-Mar-22 17:33N 53°29' E 005°05'1110.2
2015-Mar-22 16:28N 53°25' E 004°47'160 8.3
2015-Mar-21 21:06N 51°19' E 002°08'4 4.4
2015-Mar-21 20:15N 51°15' E 002°05'3 4.2
2015-Mar-21 19:29N 51°13' E 002°01'5 5.3
2015-Mar-21 18:32N 51°10' E 001°54'5 5.5
2015-Mar-21 17:34N 51°07' E 001°47'6 6.1
2015-Mar-21 16:33N 51°03' E 001°40'268 7.1
2015-Mar-20 02:33N 50°40' W 005°23'10110.8
2015-Mar-19 17:12N 51°29' W 003°02'5 0.2
2015-Mar-18 11:09N 51°34' W 002°59'  
Track history (hours):
 
Tides and Currents Weather Stations Pressure Air Temp Water Temp Dewpoint Dewpoint Depression Visibility Wind Speed Wind Dir Waves Ship Positions

Taranto

Last reported at 2015-Mar-27 08:33 UTC. Time now 2015-Mar-28 09:22 UTC.
Position N 58°53' E 009°46'.

Length 88 m; draft 3.2 m.

Type: Cargo ship. MMSI: 304010614.

Date/timePositionNaut miles runAvg speedWind from/ knotsBaromVisibWave heightAir tempDewpointWater temp
2015-Mar-27 08:33N 58°53' E 009°46'13 0.8
2015-Mar-26 15:05N 59°06' E 009°38'8 9.1
2015-Mar-26 14:12N 58°60' E 009°47'6 9.8
2015-Mar-26 13:33N 58°53' E 009°47'335 7.9
2015-Mar-24 19:05N 53°35' E 006°38'712.5
2015-Mar-24 18:33N 53°31' E 006°47'1312.9
2015-Mar-24 17:34N 53°21' E 006°59'3 2.5
2015-Mar-24 16:34N 53°19' E 006°56'1 1.1
2015-Mar-24 15:33N 53°19' E 006°55'0 0.0
2015-Mar-24 14:33N 53°19' E 006°55'0 0.0
2015-Mar-24 13:33N 53°19' E 006°55'0 0.0
2015-Mar-24 12:33N 53°19' E 006°55'0 0.0
2015-Mar-24 11:27N 53°19' E 006°55'0 0.0
2015-Mar-24 10:33N 53°19' E 006°55'0 0.0
2015-Mar-24 09:33N 53°19' E 006°55'0 0.0
2015-Mar-24 08:33N 53°19' E 006°55'0 0.0
2015-Mar-24 07:30N 53°19' E 006°55'0 0.0
2015-Mar-24 06:30N 53°19' E 006°55'0 0.0
2015-Mar-24 05:30N 53°19' E 006°55'0 0.0
2015-Mar-24 04:30N 53°19' E 006°55'0 0.0
2015-Mar-24 03:27N 53°19' E 006°55'0 0.0
2015-Mar-24 02:30N 53°19' E 006°55'0 0.0
2015-Mar-24 01:30N 53°19' E 006°55'0 0.0
2015-Mar-24 00:27N 53°19' E 006°55'0 0.0
2015-Mar-23 23:30N 53°19' E 006°55'0 0.0
2015-Mar-23 22:30N 53°19' E 006°55'0 0.0
2015-Mar-23 21:27N 53°19' E 006°55'0 0.0
2015-Mar-23 20:33N 53°19' E 006°55'0 0.0
2015-Mar-23 19:33N 53°19' E 006°55'0 0.0
2015-Mar-23 18:33N 53°19' E 006°55'0 0.0
2015-Mar-23 17:33N 53°19' E 006°55'0 0.0
2015-Mar-23 16:33N 53°19' E 006°55'0 0.0
2015-Mar-23 15:33N 53°19' E 006°55'0 0.0
2015-Mar-23 14:33N 53°19' E 006°55'0 0.0
2015-Mar-23 13:33N 53°19' E 006°55'0 0.0
2015-Mar-23 12:33N 53°19' E 006°55'0 0.0
2015-Mar-23 11:33N 53°19' E 006°55'0 0.0
2015-Mar-23 10:33N 53°19' E 006°55'0 0.0
2015-Mar-23 09:33N 53°19' E 006°55'0 0.0
2015-Mar-23 08:33N 53°19' E 006°55'0 0.0
2015-Mar-23 07:33N 53°19' E 006°55'0 0.0
2015-Mar-23 06:33N 53°19' E 006°55'0 0.0
2015-Mar-23 05:21N 53°19' E 006°55'0 0.0
2015-Mar-23 04:33N 53°19' E 006°55'0 0.0
2015-Mar-23 03:21N 53°19' E 006°55'0 0.0
2015-Mar-23 02:33N 53°19' E 006°55'1 0.7
2015-Mar-23 01:33N 53°19' E 006°56'2 2.2
2015-Mar-23 00:33N 53°19' E 006°59'9 9.3
2015-Mar-22 23:33N 53°27' E 006°52'4310.8
2015-Mar-22 19:33N 53°36' E 005°41'1111.5
2015-Mar-22 18:33N 53°32' E 005°23'1111.2
2015-Mar-22 17:33N 53°29' E 005°05'1110.2
2015-Mar-22 16:28N 53°25' E 004°47'160 8.3
2015-Mar-21 21:06N 51°19' E 002°08'4 4.4
2015-Mar-21 20:15N 51°15' E 002°05'3 4.2
2015-Mar-21 19:29N 51°13' E 002°01'5 5.3
2015-Mar-21 18:32N 51°10' E 001°54'5 5.5
2015-Mar-21 17:34N 51°07' E 001°47'6 6.1
2015-Mar-21 16:33N 51°03' E 001°40'268 7.1
2015-Mar-20 02:33N 50°40' W 005°23'10110.8
2015-Mar-19 17:12N 51°29' W 003°02'5 0.2
2015-Mar-18 11:09N 51°34' W 002°59'  

Dump ship's entire track history